createdAt,value
2023-04-27T00:00:02.516Z,4.10
2023-04-27T00:01:02.512Z,3.10
2023-04-27T00:02:02.550Z,3.70
2023-04-27T00:03:02.597Z,3.10
2023-04-27T00:04:02.570Z,3.60
2023-04-27T00:05:02.627Z,3.70
2023-04-27T00:06:02.482Z,3.70
2023-04-27T00:07:02.434Z,3.70
2023-04-27T00:08:02.414Z,3.60
2023-04-27T00:09:02.427Z,3.70
2023-04-27T00:10:02.402Z,4.00
2023-04-27T00:11:02.411Z,3.80
2023-04-27T00:12:02.447Z,3.80
2023-04-27T00:13:02.367Z,3.80
2023-04-27T00:14:02.375Z,3.70
2023-04-27T00:15:02.339Z,3.40
2023-04-27T00:16:02.396Z,3.50
2023-04-27T00:17:02.348Z,3.70
2023-04-27T00:18:02.435Z,3.70
2023-04-27T00:19:02.303Z,3.70
2023-04-27T00:20:02.326Z,3.60
2023-04-27T00:21:02.295Z,3.50
2023-04-27T00:22:02.266Z,3.50
2023-04-27T00:23:02.262Z,2.90
2023-04-27T00:24:02.242Z,4.00
2023-04-27T00:25:02.337Z,3.80
2023-04-27T00:26:02.219Z,3.80
2023-04-27T00:27:02.212Z,3.80
2023-04-27T00:28:02.226Z,3.70
2023-04-27T00:29:02.182Z,3.40
2023-04-27T00:30:02.263Z,3.90
2023-04-27T00:31:02.184Z,3.60
2023-04-27T00:32:02.247Z,3.10
2023-04-27T00:33:02.188Z,3.90
2023-04-27T00:34:02.134Z,3.80
2023-04-27T00:35:02.120Z,3.70
2023-04-27T00:36:02.146Z,3.70
2023-04-27T00:37:02.149Z,3.70
2023-04-27T00:38:02.103Z,3.80
2023-04-27T00:39:02.084Z,3.70
2023-04-27T00:40:02.064Z,3.90
2023-04-27T00:41:02.108Z,3.90
2023-04-27T00:42:02.090Z,3.90
2023-04-27T00:43:02.057Z,3.90
2023-04-27T00:44:02.069Z,4.10
2023-04-27T00:45:02.078Z,3.80
2023-04-27T00:46:02.047Z,4.30
2023-04-27T00:47:02.008Z,4.00
2023-04-27T00:48:02.060Z,4.20
2023-04-27T00:49:01.967Z,4.30
2023-04-27T00:50:01.972Z,4.00
2023-04-27T00:51:02.053Z,3.80
2023-04-27T00:52:01.949Z,4.00
2023-04-27T00:53:01.942Z,3.80
2023-04-27T00:54:01.956Z,4.60
2023-04-27T00:55:01.969Z,4.70
2023-04-27T00:56:01.952Z,4.10
2023-04-27T00:57:01.887Z,4.30
2023-04-27T00:58:01.879Z,4.70
2023-04-27T00:59:01.941Z,4.30
2023-04-27T01:00:01.878Z,4.50
2023-04-27T01:01:01.892Z,4.40
2023-04-27T01:02:01.855Z,4.40
2023-04-27T01:03:02.059Z,4.70
2023-04-27T01:04:01.992Z,4.00
2023-04-27T01:05:01.810Z,4.60
2023-04-27T01:06:01.990Z,4.40
2023-04-27T01:07:01.782Z,4.40
2023-04-27T01:08:01.786Z,3.80
2023-04-27T01:09:01.781Z,4.00
2023-04-27T01:10:01.867Z,4.30
2023-04-27T01:11:01.767Z,3.60
2023-04-27T01:12:01.737Z,3.80
2023-04-27T01:13:01.733Z,3.90
2023-04-27T01:14:01.710Z,3.70
2023-04-27T01:15:01.708Z,4.50
2023-04-27T01:16:01.697Z,4.20
2023-04-27T01:17:01.811Z,4.00
2023-04-27T01:18:01.689Z,4.00
2023-04-27T01:19:01.672Z,4.00
2023-04-27T01:20:01.670Z,4.00
2023-04-27T01:21:01.643Z,4.10
2023-04-27T01:22:01.620Z,4.40
2023-04-27T01:23:01.619Z,4.00
2023-04-27T01:24:01.642Z,4.40
2023-04-27T01:25:01.601Z,4.30
2023-04-27T01:26:01.584Z,3.80
2023-04-27T01:27:01.590Z,4.70
2023-04-27T01:28:01.614Z,3.80
2023-04-27T01:29:01.545Z,4.30
2023-04-27T01:30:01.549Z,4.20
2023-04-27T01:31:01.639Z,4.10
2023-04-27T01:32:01.510Z,4.20
2023-04-27T01:33:01.534Z,3.90
2023-04-27T01:34:01.492Z,4.00
2023-04-27T01:35:01.490Z,4.10
2023-04-27T01:36:01.489Z,4.20
2023-04-27T01:37:01.460Z,3.70
2023-04-27T01:38:01.507Z,4.40
2023-04-27T01:39:01.436Z,3.60
2023-04-27T01:40:01.451Z,4.30
2023-04-27T01:41:01.450Z,4.30
2023-04-27T01:42:01.401Z,4.10
2023-04-27T01:43:01.435Z,4.50
2023-04-27T01:44:01.378Z,4.00
2023-04-27T01:45:01.375Z,3.80
2023-04-27T01:46:01.487Z,3.90
2023-04-27T01:47:01.424Z,3.80
2023-04-27T01:48:01.375Z,3.90
2023-04-27T01:49:01.328Z,4.00
2023-04-27T01:50:01.355Z,4.70
2023-04-27T01:51:01.393Z,3.80
2023-04-27T01:52:01.296Z,3.70
2023-04-27T01:53:01.303Z,4.50
2023-04-27T01:54:01.293Z,3.80
2023-04-27T01:55:01.264Z,4.10
2023-04-27T01:56:01.346Z,3.90
2023-04-27T01:57:01.268Z,4.20
2023-04-27T01:58:01.233Z,4.40
2023-04-27T01:59:01.259Z,3.60
2023-04-27T02:00:01.214Z,4.00
2023-04-27T02:01:01.242Z,4.10
2023-04-27T02:02:01.259Z,4.10
2023-04-27T02:03:01.559Z,4.10
2023-04-27T02:04:01.371Z,4.10
2023-04-27T02:05:01.160Z,3.60
2023-04-27T02:06:01.200Z,4.00
2023-04-27T02:07:01.135Z,4.00
2023-04-27T02:08:01.141Z,4.40
2023-04-27T02:09:01.127Z,3.80
2023-04-27T02:10:01.140Z,4.40
2023-04-27T02:11:01.130Z,3.90
2023-04-27T02:12:01.088Z,4.20
2023-04-27T02:13:01.114Z,4.80
2023-04-27T02:14:01.067Z,4.00
2023-04-27T02:15:01.063Z,4.50
2023-04-27T02:16:01.175Z,4.60
2023-04-27T02:17:01.070Z,4.50
2023-04-27T02:18:01.032Z,4.00
2023-04-27T02:19:01.037Z,4.50
2023-04-27T02:20:01.000Z,4.20
2023-04-27T02:21:01.014Z,4.70
2023-04-27T02:22:01.034Z,4.50
2023-04-27T02:23:00.977Z,4.40
2023-04-27T02:24:00.955Z,4.20
2023-04-27T02:25:00.960Z,4.20
2023-04-27T02:26:00.961Z,4.20
2023-04-27T02:27:00.949Z,4.30
2023-04-27T02:28:00.926Z,4.50
2023-04-27T02:29:00.956Z,4.20
2023-04-27T02:30:00.894Z,4.40
2023-04-27T02:31:00.884Z,4.70
2023-04-27T02:32:00.904Z,4.80
2023-04-27T02:33:00.975Z,5.40
2023-04-27T02:34:00.852Z,6.20
2023-04-27T02:35:00.846Z,6.70
2023-04-27T02:36:00.887Z,5.20
2023-04-27T02:37:00.833Z,5.30
2023-04-27T02:38:00.800Z,4.70
2023-04-27T02:39:00.823Z,4.70
2023-04-27T02:40:00.782Z,4.90
2023-04-27T02:41:00.772Z,4.70
2023-04-27T02:42:00.817Z,4.50
2023-04-27T02:43:00.764Z,4.70
2023-04-27T02:44:00.749Z,4.60
2023-04-27T02:45:00.771Z,4.70
2023-04-27T02:46:00.710Z,4.10
2023-04-27T02:47:00.868Z,4.10
2023-04-27T02:48:09.335Z,4.30
2023-04-27T02:49:00.743Z,4.20
2023-04-27T02:50:00.720Z,4.10
2023-04-27T02:51:00.701Z,4.20
2023-04-27T02:52:00.679Z,4.30
2023-04-27T02:53:00.654Z,4.40
2023-04-27T02:54:00.671Z,4.80
2023-04-27T02:55:00.672Z,4.40
2023-04-27T02:56:00.657Z,4.40
2023-04-27T02:57:00.648Z,4.10
2023-04-27T02:58:00.652Z,4.00
2023-04-27T02:59:00.922Z,4.00
2023-04-27T03:00:00.650Z,4.70
2023-04-27T03:01:00.863Z,4.30
2023-04-27T03:02:00.598Z,4.10
2023-04-27T03:03:00.657Z,4.50
2023-04-27T03:04:00.908Z,4.20
2023-04-27T03:05:00.524Z,4.30
2023-04-27T03:06:00.530Z,4.90
2023-04-27T03:07:00.530Z,4.60
2023-04-27T03:08:00.492Z,4.20
2023-04-27T03:09:00.507Z,4.60
2023-04-27T03:10:00.791Z,4.40
2023-04-27T03:11:00.515Z,4.40
2023-04-27T03:12:00.489Z,4.50
2023-04-27T03:13:00.453Z,4.70
2023-04-27T03:14:00.515Z,4.60
2023-04-27T03:15:00.664Z,4.10
2023-04-27T03:16:00.461Z,4.90
2023-04-27T03:17:00.494Z,5.10
2023-04-27T03:18:00.662Z,4.70
2023-04-27T03:19:00.391Z,5.10
2023-04-27T03:20:00.374Z,5.40
2023-04-27T03:21:00.694Z,4.80
2023-04-27T03:22:00.376Z,5.30
2023-04-27T03:23:00.348Z,5.40
2023-04-27T03:24:00.423Z,5.30
2023-04-27T03:25:00.321Z,5.10
2023-04-27T03:26:00.377Z,5.20
2023-04-27T03:27:00.363Z,5.20
2023-04-27T03:28:00.273Z,5.10
2023-04-27T03:29:00.273Z,5.00
2023-04-27T03:30:00.352Z,4.80
2023-04-27T03:31:00.323Z,5.10
2023-04-27T03:32:00.708Z,5.00
2023-04-27T03:33:00.289Z,5.50
2023-04-27T03:34:00.260Z,5.40
2023-04-27T03:35:00.225Z,5.50
2023-04-27T03:36:00.304Z,5.60
2023-04-27T03:37:00.249Z,5.10
2023-04-27T03:38:00.188Z,5.40
2023-04-27T03:39:00.243Z,4.70
2023-04-27T03:40:00.225Z,4.90
2023-04-27T03:41:00.150Z,5.20
2023-04-27T03:42:00.198Z,4.90
2023-04-27T03:43:00.521Z,5.00
2023-04-27T03:44:00.145Z,5.70
2023-04-27T03:45:00.154Z,4.90
2023-04-27T03:46:00.201Z,5.10
2023-04-27T03:47:00.125Z,5.10
2023-04-27T03:48:00.130Z,5.50
2023-04-27T03:49:00.116Z,5.00
2023-04-27T03:50:00.069Z,5.10
2023-04-27T03:51:00.054Z,4.90
2023-04-27T03:52:00.115Z,4.70
2023-04-27T03:53:00.062Z,5.00
2023-04-27T03:54:00.347Z,5.00
2023-04-27T03:55:00.061Z,4.60
2023-04-27T03:56:00.071Z,4.30
2023-04-27T03:57:00.114Z,4.70
2023-04-27T03:57:59.993Z,5.00
2023-04-27T03:58:59.970Z,5.00
2023-04-27T03:59:59.970Z,4.60
2023-04-27T04:01:00.744Z,5.10
2023-04-27T04:02:01.415Z,5.00
2023-04-27T04:03:00.192Z,5.50
2023-04-27T04:04:00.195Z,5.70
2023-04-27T04:05:02.734Z,6.70
2023-04-27T04:06:00.177Z,6.30
2023-04-27T04:06:59.927Z,6.70
2023-04-27T04:07:59.966Z,6.40
2023-04-27T04:08:59.907Z,6.40
2023-04-27T04:09:59.863Z,7.20
2023-04-27T04:10:59.867Z,7.00
2023-04-27T04:11:59.942Z,7.00
2023-04-27T04:12:59.823Z,6.50
2023-04-27T04:13:59.842Z,6.60
2023-04-27T04:14:59.788Z,6.40
2023-04-27T04:16:00.151Z,6.60
2023-04-27T04:16:59.802Z,6.30
2023-04-27T04:17:59.804Z,7.60
2023-04-27T04:18:59.808Z,6.80
2023-04-27T04:19:59.735Z,7.20
2023-04-27T04:20:59.764Z,6.80
2023-04-27T04:22:00.024Z,6.60
2023-04-27T04:23:00.652Z,6.90
2023-04-27T04:23:59.746Z,6.40
2023-04-27T04:24:59.784Z,6.10
2023-04-27T04:25:59.690Z,6.50
2023-04-27T04:27:00.120Z,6.30
2023-04-27T04:27:59.732Z,6.50
2023-04-27T04:30:10.581Z,5.80
2023-04-27T04:31:10.619Z,6.40
2023-04-27T04:32:10.557Z,6.80
2023-04-27T04:33:10.554Z,6.30
2023-04-27T04:34:10.541Z,7.10
2023-04-27T04:35:10.517Z,6.80
2023-04-27T04:36:10.534Z,7.20
2023-04-27T04:37:10.496Z,6.70
2023-04-27T04:38:10.485Z,6.90
2023-04-27T04:39:10.504Z,6.60
2023-04-27T04:40:10.483Z,6.60
2023-04-27T04:41:10.481Z,6.60
2023-04-27T04:42:10.457Z,7.80
2023-04-27T04:43:10.433Z,7.10
2023-04-27T04:44:10.421Z,7.70
2023-04-27T04:45:10.426Z,7.90
2023-04-27T04:46:10.438Z,6.90
2023-04-27T04:47:10.428Z,7.10
2023-04-27T04:48:10.437Z,6.90
2023-04-27T04:49:10.364Z,6.70
2023-04-27T04:50:10.371Z,7.10
2023-04-27T04:51:10.352Z,6.70
2023-04-27T04:52:10.450Z,6.50
2023-04-27T04:53:10.333Z,6.60
2023-04-27T04:54:10.309Z,6.80
2023-04-27T04:55:10.337Z,7.10
2023-04-27T04:56:10.324Z,6.30
2023-04-27T04:57:10.445Z,6.30
2023-04-27T04:58:10.298Z,6.30
2023-04-27T04:59:10.256Z,6.10
2023-04-27T05:00:10.290Z,6.40
2023-04-27T05:01:10.274Z,6.60
2023-04-27T05:02:10.226Z,6.10
2023-04-27T05:03:10.437Z,5.50
2023-04-27T05:04:10.373Z,6.20
2023-04-27T05:05:10.241Z,5.80
2023-04-27T05:06:10.184Z,5.80
2023-04-27T05:07:11.448Z,5.80
2023-04-27T05:08:10.161Z,5.90
2023-04-27T05:09:10.167Z,6.00
2023-04-27T05:10:10.162Z,6.00
2023-04-27T05:11:10.132Z,6.30
2023-04-27T05:12:10.124Z,6.00
2023-04-27T05:13:10.124Z,6.30
2023-04-27T05:14:10.124Z,6.40
2023-04-27T05:15:10.110Z,6.40
2023-04-27T05:16:10.139Z,6.50
2023-04-27T05:17:10.062Z,6.50
2023-04-27T05:18:10.142Z,6.10
2023-04-27T05:19:10.039Z,6.80
2023-04-27T05:20:10.079Z,6.30
2023-04-27T05:21:10.038Z,6.40
2023-04-27T05:22:10.043Z,6.50
2023-04-27T05:23:14.753Z,5.60
2023-04-27T05:24:09.987Z,6.20
2023-04-27T05:25:10.001Z,6.20
2023-04-27T05:26:09.996Z,6.20
2023-04-27T05:27:10.001Z,5.60
2023-04-27T05:28:09.939Z,5.70
2023-04-27T05:29:09.939Z,6.00
2023-04-27T05:30:09.958Z,5.60
2023-04-27T05:31:09.960Z,6.20
2023-04-27T05:32:10.021Z,5.90
2023-04-27T05:33:09.985Z,6.30
2023-04-27T05:34:09.877Z,7.00
2023-04-27T05:35:09.905Z,6.00
2023-04-27T05:36:09.876Z,6.60
2023-04-27T05:37:09.850Z,6.90
2023-04-27T05:38:09.857Z,6.80
2023-04-27T05:39:09.826Z,6.50
2023-04-27T05:40:09.868Z,6.40
2023-04-27T05:41:09.808Z,6.90
2023-04-27T05:42:09.796Z,6.40
2023-04-27T05:43:09.783Z,6.80
2023-04-27T05:44:09.772Z,7.50
2023-04-27T05:45:09.794Z,6.70
2023-04-27T05:46:09.771Z,7.10
2023-04-27T05:47:09.738Z,7.10
2023-04-27T05:48:09.733Z,7.90
2023-04-27T05:49:09.743Z,8.50
2023-04-27T05:50:09.749Z,8.80
2023-04-27T05:51:09.692Z,8.90
2023-04-27T05:52:09.708Z,10.10
2023-04-27T05:53:09.686Z,9.30
2023-04-27T05:54:09.688Z,9.80
2023-04-27T05:55:09.689Z,9.70
2023-04-27T05:56:09.649Z,9.40
2023-04-27T05:57:09.659Z,9.60
2023-04-27T05:58:09.652Z,9.90
2023-04-27T05:59:09.614Z,10.10
2023-04-27T06:00:09.591Z,9.50
2023-04-27T06:01:09.607Z,8.90
2023-04-27T06:02:09.594Z,9.70
2023-04-27T06:03:09.720Z,8.90
2023-04-27T06:04:09.639Z,8.60
2023-04-27T06:05:09.603Z,7.70
2023-04-27T06:06:09.555Z,7.40
2023-04-27T06:07:10.328Z,8.10
2023-04-27T06:08:09.515Z,7.80
2023-04-27T06:09:09.496Z,6.90
2023-04-27T06:10:09.507Z,7.20
2023-04-27T06:11:09.515Z,7.40
2023-04-27T06:12:09.475Z,7.10
2023-04-27T06:13:09.486Z,7.30
2023-04-27T06:14:09.453Z,6.90
2023-04-27T06:15:09.432Z,7.00
2023-04-27T06:16:09.568Z,7.50
2023-04-27T06:17:09.418Z,6.70
2023-04-27T06:18:09.459Z,6.60
2023-04-27T06:19:09.408Z,6.60
2023-04-27T06:20:09.413Z,6.40
2023-04-27T06:21:09.386Z,6.50
2023-04-27T06:22:09.358Z,6.50
2023-04-27T06:23:09.357Z,6.90
2023-04-27T06:24:09.337Z,6.60
2023-04-27T06:25:09.334Z,7.10
2023-04-27T06:26:09.335Z,7.80
2023-04-27T06:27:09.333Z,7.20
2023-04-27T06:28:09.286Z,7.80
2023-04-27T06:29:09.298Z,7.30
2023-04-27T06:30:09.278Z,6.40
2023-04-27T06:31:09.347Z,7.00
2023-04-27T06:32:09.311Z,6.70
2023-04-27T06:33:09.291Z,6.60
2023-04-27T06:34:09.308Z,6.80
2023-04-27T06:35:09.223Z,6.50
2023-04-27T06:36:09.229Z,8.30
2023-04-27T06:37:09.192Z,12.00
2023-04-27T06:38:09.192Z,10.50
2023-04-27T06:39:09.188Z,8.80
2023-04-27T06:40:09.164Z,9.20
2023-04-27T06:41:09.147Z,8.90
2023-04-27T06:42:09.178Z,7.80
2023-04-27T06:43:09.135Z,7.50
2023-04-27T06:44:09.128Z,7.70
2023-04-27T06:45:09.112Z,7.30
2023-04-27T06:46:09.148Z,6.50
2023-04-27T06:47:09.365Z,6.90
2023-04-27T06:48:09.112Z,6.90
2023-04-27T06:49:09.084Z,6.70
2023-04-27T06:50:09.054Z,6.50
2023-04-27T06:51:09.081Z,6.30
2023-04-27T06:52:09.133Z,7.10
2023-04-27T06:53:09.028Z,6.70
2023-04-27T06:54:09.012Z,6.40
2023-04-27T06:55:09.026Z,6.60
2023-04-27T06:56:09.020Z,6.50
2023-04-27T06:57:08.991Z,6.30
2023-04-27T06:58:08.967Z,6.40
2023-04-27T06:59:08.953Z,6.60
2023-04-27T07:00:08.962Z,6.90
2023-04-27T07:01:09.018Z,7.80
2023-04-27T07:02:08.939Z,9.10
2023-04-27T07:03:09.089Z,10.30
2023-04-27T07:04:09.049Z,9.70
2023-04-27T07:05:08.901Z,8.80
2023-04-27T07:06:08.917Z,8.50
2023-04-27T07:07:08.870Z,7.20
2023-04-27T07:08:09.275Z,6.70
2023-04-27T07:09:20.054Z,6.70
2023-04-27T07:10:09.861Z,6.20
2023-04-27T07:11:08.846Z,5.90
2023-04-27T07:12:08.811Z,6.20
2023-04-27T07:13:09.622Z,5.50
2023-04-27T07:14:08.809Z,6.00
2023-04-27T07:15:08.789Z,5.60
2023-04-27T07:16:08.872Z,5.60
2023-04-27T07:17:08.770Z,6.00
2023-04-27T07:18:08.877Z,5.60
2023-04-27T07:19:08.750Z,5.80
2023-04-27T07:20:08.816Z,5.90
2023-04-27T07:21:08.752Z,6.00
2023-04-27T07:22:08.774Z,5.60
2023-04-27T07:23:08.698Z,5.70
2023-04-27T07:24:08.690Z,5.40
2023-04-27T07:25:08.674Z,5.60
2023-04-27T07:26:08.684Z,5.20
2023-04-27T07:27:08.687Z,5.70
2023-04-27T07:28:08.664Z,5.70
2023-04-27T07:29:22.969Z,5.70
2023-04-27T07:30:09.666Z,5.60
2023-04-27T07:31:08.625Z,5.00
2023-04-27T07:32:08.856Z,5.10
2023-04-27T07:33:08.695Z,5.50
2023-04-27T07:34:08.583Z,5.00
2023-04-27T07:35:08.586Z,5.20
2023-04-27T07:36:08.552Z,5.00
2023-04-27T07:37:08.566Z,5.20
2023-04-27T07:38:08.563Z,5.20
2023-04-27T07:39:08.518Z,5.00
2023-04-27T07:40:08.518Z,4.80
2023-04-27T07:41:08.493Z,5.20
2023-04-27T07:42:08.535Z,5.30
2023-04-27T07:43:08.475Z,5.40
2023-04-27T07:44:08.470Z,5.10
2023-04-27T07:45:08.454Z,5.00
2023-04-27T07:46:08.459Z,5.10
2023-04-27T07:47:08.465Z,5.00
2023-04-27T07:48:08.537Z,5.40
2023-04-27T07:49:08.410Z,5.60
2023-04-27T07:50:08.403Z,5.30
2023-04-27T07:51:08.405Z,5.10
2023-04-27T07:52:08.395Z,5.50
2023-04-27T07:53:08.380Z,5.00
2023-04-27T07:54:08.353Z,5.90
2023-04-27T07:55:08.359Z,6.20
2023-04-27T07:56:08.336Z,5.80
2023-04-27T07:57:08.367Z,6.00
2023-04-27T07:58:08.329Z,5.60
2023-04-27T07:59:08.307Z,6.10
2023-04-27T08:00:08.287Z,5.30
2023-04-27T08:01:08.276Z,5.40
2023-04-27T08:02:19.027Z,5.40
2023-04-27T08:03:09.547Z,5.50
2023-04-27T08:04:08.445Z,5.60
2023-04-27T08:05:08.681Z,5.20
2023-04-27T08:06:08.711Z,5.40
2023-04-27T08:07:08.864Z,5.70
2023-04-27T08:08:08.671Z,5.50
2023-04-27T08:09:08.208Z,5.30
2023-04-27T08:10:08.192Z,5.50
2023-04-27T08:11:08.191Z,5.60
2023-04-27T08:12:08.189Z,5.10
2023-04-27T08:13:08.171Z,5.60
2023-04-27T08:14:08.132Z,5.60
2023-04-27T08:15:08.122Z,5.20
2023-04-27T08:16:08.155Z,5.30
2023-04-27T08:17:08.124Z,5.10
2023-04-27T08:18:08.135Z,5.50
2023-04-27T08:19:08.103Z,5.10
2023-04-27T08:20:08.069Z,5.20
2023-04-27T08:21:08.061Z,5.50
2023-04-27T08:22:08.054Z,4.80
2023-04-27T08:23:08.069Z,5.10
2023-04-27T08:24:08.051Z,4.90
2023-04-27T08:25:08.016Z,5.10
2023-04-27T08:26:08.022Z,5.50
2023-04-27T08:27:08.020Z,5.40
2023-04-27T08:28:08.034Z,7.90
2023-04-27T08:29:19.340Z,8.70
2023-04-27T08:30:08.964Z,7.00
2023-04-27T08:31:08.019Z,5.80
2023-04-27T08:32:07.948Z,6.50
2023-04-27T08:33:08.025Z,5.10
2023-04-27T08:34:07.919Z,5.70
2023-04-27T08:35:07.935Z,5.40
2023-04-27T08:36:07.901Z,5.50
2023-04-27T08:37:07.906Z,5.10
2023-04-27T08:38:07.896Z,5.40
2023-04-27T08:39:07.914Z,5.60
2023-04-27T08:40:07.869Z,5.10
2023-04-27T08:41:20.809Z,5.40
2023-04-27T08:42:08.830Z,5.80
2023-04-27T08:43:07.852Z,4.90
2023-04-27T08:44:07.826Z,5.50
2023-04-27T08:45:07.807Z,5.20
2023-04-27T08:46:07.872Z,5.50
2023-04-27T08:47:07.768Z,5.50
2023-04-27T08:48:07.895Z,7.90
2023-04-27T08:49:08.090Z,9.90
2023-04-27T08:50:07.747Z,9.00
2023-04-27T08:51:07.777Z,7.90
2023-04-27T08:52:07.732Z,5.90
2023-04-27T08:53:07.805Z,6.40
2023-04-27T08:54:07.749Z,6.20
2023-04-27T08:55:07.759Z,6.00
2023-04-27T08:56:07.721Z,5.20
2023-04-27T08:57:07.719Z,5.80
2023-04-27T08:58:07.698Z,5.40
2023-04-27T08:59:07.719Z,5.90
2023-04-27T09:00:07.699Z,5.20
2023-04-27T09:01:07.753Z,5.50
2023-04-27T09:02:07.838Z,5.20
2023-04-27T09:03:07.711Z,5.70
2023-04-27T09:04:07.809Z,5.20
2023-04-27T09:05:07.872Z,5.80
2023-04-27T09:06:07.850Z,5.70
2023-04-27T09:07:07.552Z,6.10
2023-04-27T09:08:07.545Z,5.50
2023-04-27T09:09:07.565Z,6.40
2023-04-27T09:10:07.552Z,5.90
2023-04-27T09:11:07.516Z,6.10
2023-04-27T09:12:07.619Z,5.40
2023-04-27T09:13:07.493Z,5.60
2023-04-27T09:14:07.482Z,5.60
2023-04-27T09:15:07.498Z,5.20
2023-04-27T09:16:07.581Z,5.00
2023-04-27T09:17:07.483Z,5.30
2023-04-27T09:18:07.485Z,5.00
2023-04-27T09:19:07.436Z,4.90
2023-04-27T09:20:07.443Z,5.50
2023-04-27T09:21:07.406Z,4.80
2023-04-27T09:22:07.416Z,4.80
2023-04-27T09:23:07.382Z,5.40
2023-04-27T09:24:07.404Z,6.20
2023-04-27T09:25:07.393Z,5.80
2023-04-27T09:26:07.372Z,6.30
2023-04-27T09:27:07.479Z,6.00
2023-04-27T09:28:07.341Z,5.50
2023-04-27T09:29:07.344Z,5.50
2023-04-27T09:30:07.329Z,4.70
2023-04-27T09:31:07.334Z,5.40
2023-04-27T09:32:07.317Z,5.40
2023-04-27T09:33:07.328Z,5.50
2023-04-27T09:34:07.337Z,5.50
2023-04-27T09:35:07.264Z,5.60
2023-04-27T09:36:07.276Z,6.00
2023-04-27T09:37:07.231Z,6.00
2023-04-27T09:38:07.229Z,5.80
2023-04-27T09:39:07.229Z,6.20
2023-04-27T09:40:07.226Z,6.30
2023-04-27T09:41:07.200Z,5.60
2023-04-27T09:42:07.180Z,5.50
2023-04-27T09:43:07.161Z,5.20
2023-04-27T09:44:07.177Z,5.40
2023-04-27T09:45:07.177Z,4.80
2023-04-27T09:46:07.155Z,5.40
2023-04-27T09:47:07.166Z,4.50
2023-04-27T09:48:07.143Z,5.80
2023-04-27T09:49:07.129Z,5.30
2023-04-27T09:50:07.127Z,5.10
2023-04-27T09:51:07.075Z,5.30
2023-04-27T09:52:07.072Z,5.10
2023-04-27T09:53:07.099Z,5.20
2023-04-27T09:54:07.055Z,6.10
2023-04-27T09:55:07.060Z,6.00
2023-04-27T09:56:07.065Z,6.20
2023-04-27T09:57:07.029Z,5.80
2023-04-27T09:58:06.999Z,6.20
2023-04-27T09:59:06.987Z,5.50
2023-04-27T10:00:07.009Z,5.00
2023-04-27T10:01:07.001Z,5.80
2023-04-27T10:02:20.996Z,5.30
2023-04-27T10:03:08.081Z,5.40
2023-04-27T10:04:07.065Z,4.50
2023-04-27T10:05:06.968Z,5.50
2023-04-27T10:06:06.904Z,5.20
2023-04-27T10:07:06.903Z,5.10
2023-04-27T10:08:06.931Z,5.00
2023-04-27T10:09:06.901Z,5.30
2023-04-27T10:10:06.889Z,5.00
2023-04-27T10:11:06.860Z,5.30
2023-04-27T10:12:06.857Z,5.70
2023-04-27T10:13:06.856Z,5.20
2023-04-27T10:14:06.876Z,5.30
2023-04-27T10:15:06.856Z,4.70
2023-04-27T10:16:06.809Z,5.10
2023-04-27T10:17:06.876Z,5.10
2023-04-27T10:18:06.856Z,5.30
2023-04-27T10:19:06.772Z,5.20
2023-04-27T10:20:06.830Z,5.40
2023-04-27T10:21:06.750Z,5.10
2023-04-27T10:22:06.746Z,4.80
2023-04-27T10:23:06.766Z,4.80
2023-04-27T10:24:06.734Z,5.50
2023-04-27T10:25:06.721Z,5.40
2023-04-27T10:26:06.730Z,5.60
2023-04-27T10:27:06.698Z,5.40
2023-04-27T10:28:06.686Z,5.50
2023-04-27T10:29:06.667Z,5.20
2023-04-27T10:30:06.681Z,5.40
2023-04-27T10:31:06.662Z,5.80
2023-04-27T10:32:06.657Z,5.50
2023-04-27T10:33:06.668Z,5.60
2023-04-27T10:34:06.670Z,5.40
2023-04-27T10:35:06.615Z,5.60
2023-04-27T10:36:06.666Z,5.50
2023-04-27T10:37:06.584Z,5.50
2023-04-27T10:38:06.568Z,4.80
2023-04-27T10:39:06.567Z,5.10
2023-04-27T10:40:06.603Z,4.20
2023-04-27T10:41:06.543Z,5.10
2023-04-27T10:42:06.567Z,5.00
2023-04-27T10:43:06.515Z,5.10
2023-04-27T10:44:06.515Z,5.00
2023-04-27T10:45:06.569Z,5.60
2023-04-27T10:46:06.548Z,4.60
2023-04-27T10:47:06.479Z,5.10
2023-04-27T10:48:06.567Z,4.00
2023-04-27T10:49:06.484Z,4.80
2023-04-27T10:50:06.454Z,4.90
2023-04-27T10:51:06.474Z,5.20
2023-04-27T10:52:06.476Z,4.50
2023-04-27T10:53:06.418Z,4.50
2023-04-27T10:54:06.408Z,5.10
2023-04-27T10:55:06.792Z,4.60
2023-04-27T10:56:06.451Z,5.00
2023-04-27T10:57:06.362Z,4.80
2023-04-27T10:58:06.410Z,5.10
2023-04-27T10:59:06.352Z,4.90
2023-04-27T11:00:06.383Z,5.00
2023-04-27T11:01:06.345Z,4.70
2023-04-27T11:02:06.399Z,4.70
2023-04-27T11:03:06.382Z,4.80
2023-04-27T11:04:06.299Z,4.30
2023-04-27T11:05:06.411Z,5.40
2023-04-27T11:06:06.367Z,4.60
2023-04-27T11:07:06.252Z,5.30
2023-04-27T11:08:06.242Z,4.70
2023-04-27T11:09:06.238Z,4.60
2023-04-27T11:10:06.225Z,4.50
2023-04-27T11:11:06.317Z,4.40
2023-04-27T11:12:06.201Z,4.40
2023-04-27T11:13:06.215Z,4.20
2023-04-27T11:14:06.225Z,4.00
2023-04-27T11:15:06.188Z,4.00
2023-04-27T11:16:06.206Z,4.40
2023-04-27T11:17:06.161Z,5.00
2023-04-27T11:18:06.243Z,6.40
2023-04-27T11:19:06.131Z,7.60
2023-04-27T11:20:06.130Z,9.00
2023-04-27T11:21:06.098Z,6.30
2023-04-27T11:22:06.110Z,5.90
2023-04-27T11:23:06.083Z,5.20
2023-04-27T11:24:06.092Z,4.80
2023-04-27T11:25:06.080Z,5.50
2023-04-27T11:26:06.045Z,4.40
2023-04-27T11:27:06.056Z,5.10
2023-04-27T11:28:06.034Z,4.70
2023-04-27T11:29:06.045Z,4.90
2023-04-27T11:30:06.048Z,4.90
2023-04-27T11:31:06.004Z,4.50
2023-04-27T11:32:06.208Z,4.90
2023-04-27T11:33:06.068Z,4.60
2023-04-27T11:34:07.841Z,4.60
2023-04-27T11:35:06.072Z,4.30
2023-04-27T11:36:05.945Z,4.40
2023-04-27T11:38:05.933Z,4.70
2023-04-27T11:39:06.074Z,4.60
2023-04-27T11:40:05.900Z,4.50
2023-04-27T11:41:06.006Z,4.50
2023-04-27T11:42:05.867Z,4.70
2023-04-27T11:43:05.864Z,4.80
2023-04-27T11:44:05.900Z,4.20
2023-04-27T11:45:05.866Z,4.50
2023-04-27T11:46:05.905Z,4.10
2023-04-27T11:47:05.859Z,4.50
2023-04-27T11:48:05.856Z,4.20
2023-04-27T11:49:06.124Z,4.00
2023-04-27T11:50:05.932Z,4.70
2023-04-27T11:51:05.769Z,4.40
2023-04-27T11:52:05.787Z,4.50
2023-04-27T11:53:05.749Z,4.10
2023-04-27T11:54:05.800Z,4.00
2023-04-27T11:55:05.738Z,4.30
2023-04-27T11:56:05.751Z,4.40
2023-04-27T11:57:05.744Z,4.00
2023-04-27T11:58:05.698Z,4.60
2023-04-27T11:59:05.694Z,4.30
2023-04-27T12:00:05.668Z,4.70
2023-04-27T12:01:05.680Z,4.30
2023-04-27T12:02:05.756Z,4.50
2023-04-27T12:03:05.802Z,4.40
2023-04-27T12:04:05.766Z,4.40
2023-04-27T12:05:05.771Z,4.20
2023-04-27T12:06:21.527Z,4.00
2023-04-27T12:07:06.607Z,4.30
2023-04-27T12:08:05.589Z,4.50
2023-04-27T12:09:05.573Z,4.30
2023-04-27T12:10:05.598Z,4.10
2023-04-27T12:11:05.550Z,3.90
2023-04-27T12:12:05.560Z,4.10
2023-04-27T12:13:05.533Z,4.00
2023-04-27T12:14:05.523Z,4.10
2023-04-27T12:15:05.508Z,3.70
2023-04-27T12:16:05.498Z,4.00
2023-04-27T12:17:05.651Z,4.20
2023-04-27T12:18:05.541Z,4.30
2023-04-27T12:19:05.509Z,3.80
2023-04-27T12:20:05.454Z,4.60
2023-04-27T12:21:06.399Z,4.20
2023-04-27T12:22:05.459Z,4.40
2023-04-27T12:23:05.482Z,4.30
2023-04-27T12:24:05.427Z,4.30
2023-04-27T12:25:05.415Z,4.30
2023-04-27T12:26:05.408Z,4.20
2023-04-27T12:27:05.376Z,4.40
2023-04-27T12:28:05.451Z,4.30
2023-04-27T12:29:05.384Z,4.30
2023-04-27T12:30:05.338Z,4.40
2023-04-27T12:31:05.410Z,4.20
2023-04-27T12:32:05.324Z,3.70
2023-04-27T12:33:05.411Z,4.20
2023-04-27T12:34:05.306Z,4.20
2023-04-27T12:35:05.304Z,4.50
2023-04-27T12:36:05.316Z,4.40
2023-04-27T12:37:05.276Z,4.10
2023-04-27T12:38:05.270Z,4.20
2023-04-27T12:39:05.245Z,3.80
2023-04-27T12:40:05.234Z,3.90
2023-04-27T12:41:05.226Z,4.10
2023-04-27T12:42:05.222Z,3.90
2023-04-27T12:43:05.229Z,3.80
2023-04-27T12:44:05.196Z,4.50
2023-04-27T12:45:05.186Z,4.20
2023-04-27T12:46:05.210Z,4.30
2023-04-27T12:47:05.158Z,4.40
2023-04-27T12:48:05.203Z,4.40
2023-04-27T12:49:05.146Z,4.40
2023-04-27T12:50:05.119Z,4.30
2023-04-27T12:51:05.118Z,4.20
2023-04-27T12:52:05.150Z,3.90
2023-04-27T12:53:05.106Z,4.10
2023-04-27T12:54:05.098Z,4.20
2023-04-27T12:55:05.069Z,3.90
2023-04-27T12:56:05.105Z,4.00
2023-04-27T12:57:05.066Z,4.30
2023-04-27T12:58:05.071Z,3.70
2023-04-27T12:59:05.027Z,3.90
2023-04-27T13:00:05.052Z,3.70
2023-04-27T13:01:05.013Z,3.50
2023-04-27T13:02:05.040Z,3.70
2023-04-27T13:03:05.153Z,3.70
2023-04-27T13:04:05.092Z,4.20
2023-04-27T13:05:05.047Z,3.80
2023-04-27T13:06:04.998Z,3.60
2023-04-27T13:07:04.928Z,3.90
2023-04-27T13:08:04.936Z,4.40
2023-04-27T13:09:04.973Z,4.00
2023-04-27T13:10:04.912Z,3.70
2023-04-27T13:11:04.907Z,4.00
2023-04-27T13:12:04.922Z,3.70
2023-04-27T13:13:04.890Z,3.90
2023-04-27T13:14:04.873Z,3.50
2023-04-27T13:15:04.894Z,4.30
2023-04-27T13:16:04.884Z,3.70
2023-04-27T13:17:04.822Z,4.20
2023-04-27T13:18:04.872Z,3.70
2023-04-27T13:19:04.820Z,3.60
2023-04-27T13:20:04.839Z,3.80